Time,TemperatureF,DewpointF,PressureIn,WindDirection,WindDirectionDegrees,WindSpeedMPH,WindSpeedGustMPH,Humidity,HourlyPrecipIn,Conditions,Clouds,dailyrainin,SolarRadiationWatts/m^2,SoftwareType,DateUTC
2013-03-12 00:02:00,61.0,61.0,-100.00,ENE,68,4.0,11.0,99,0.01,,,0.79,0.000000,,2013-03-12 10:02:00,
2013-03-12 00:12:00,61.0,61.0,-100.00,ENE,68,4.0,11.0,99,0.01,,,0.79,0.000000,,2013-03-12 10:12:00,
2013-03-12 00:22:00,61.0,61.0,-100.00,ENE,68,4.0,11.0,99,0.01,,,0.79,0.000000,,2013-03-12 10:22:00,
2013-03-12 00:32:00,61.0,61.0,-100.00,ENE,68,4.0,11.0,99,0.01,,,0.79,0.000000,,2013-03-12 10:32:00,
2013-03-12 01:02:00,59.0,59.0,-100.00,ESE,119,0.0,9.0,99,0.00,,,0.79,0.000000,,2013-03-12 11:02:00,
2013-03-12 01:12:00,59.0,59.0,-100.00,ESE,119,0.0,9.0,99,0.00,,,0.79,0.000000,,2013-03-12 11:12:00,
2013-03-12 01:22:00,59.0,59.0,-100.00,ESE,119,0.0,9.0,99,0.00,,,0.79,0.000000,,2013-03-12 11:22:00,
2013-03-12 01:32:00,59.0,59.0,-100.00,ESE,119,0.0,9.0,99,0.00,,,0.79,0.000000,,2013-03-12 11:32:00,
2013-03-12 02:02:00,60.0,60.0,-100.00,WSW,240,0.0,7.0,99,0.00,,,0.79,0.000000,,2013-03-12 12:02:00,
2013-03-12 02:12:00,60.0,60.0,-100.00,WSW,240,0.0,7.0,99,0.00,,,0.79,0.000000,,2013-03-12 12:12:00,
2013-03-12 02:22:00,60.0,60.0,-100.00,WSW,240,0.0,7.0,99,0.00,,,0.79,0.000000,,2013-03-12 12:22:00,
2013-03-12 02:32:00,60.0,60.0,-100.00,WSW,240,0.0,7.0,99,0.00,,,0.79,0.000000,,2013-03-12 12:32:00,
2013-03-12 03:02:00,60.0,60.0,-100.00,SE,135,4.0,6.0,99,0.00,,,0.79,0.000000,,2013-03-12 13:02:00,
2013-03-12 03:12:00,60.0,60.0,-100.00,SE,135,4.0,6.0,99,0.00,,,0.79,0.000000,,2013-03-12 13:12:00,
2013-03-12 03:22:00,60.0,60.0,-100.00,SE,135,4.0,6.0,99,0.00,,,0.79,0.000000,,2013-03-12 13:22:00,
2013-03-12 03:32:00,60.0,60.0,-100.00,SE,135,4.0,6.0,99,0.00,,,0.79,0.000000,,2013-03-12 13:32:00,
2013-03-12 04:02:00,59.0,59.0,-100.00,WNW,287,1.0,6.0,99,0.00,,,0.79,0.000000,,2013-03-12 14:02:00,
2013-03-12 04:12:00,59.0,59.0,-100.00,WNW,287,1.0,6.0,99,0.00,,,0.79,0.000000,,2013-03-12 14:12:00,
2013-03-12 04:22:00,59.0,59.0,-100.00,WNW,287,1.0,6.0,99,0.00,,,0.79,0.000000,,2013-03-12 14:22:00,
2013-03-12 04:32:00,59.0,59.0,-100.00,WNW,287,1.0,6.0,99,0.00,,,0.79,0.000000,,2013-03-12 14:32:00,
2013-03-12 05:02:00,59.0,59.0,-100.00,SE,125,3.0,6.0,99,0.00,,,0.79,0.000000,,2013-03-12 15:02:00,
2013-03-12 05:12:00,59.0,59.0,-100.00,SE,125,3.0,6.0,99,0.00,,,0.79,0.000000,,2013-03-12 15:12:00,
2013-03-12 05:22:00,59.0,59.0,-100.00,SE,125,3.0,6.0,99,0.00,,,0.79,0.000000,,2013-03-12 15:22:00,
2013-03-12 05:32:00,59.0,59.0,-100.00,SE,125,3.0,6.0,99,0.00,,,0.79,0.000000,,2013-03-12 15:32:00,
2013-03-12 06:02:00,60.0,60.0,-100.00,SE,129,4.0,7.0,99,0.00,,,0.79,0.000000,,2013-03-12 16:02:00,
2013-03-12 06:12:00,60.0,60.0,-100.00,SE,129,4.0,7.0,99,0.00,,,0.79,0.000000,,2013-03-12 16:12:00,
2013-03-12 06:22:00,60.0,60.0,-100.00,SE,129,4.0,7.0,99,0.00,,,0.79,0.000000,,2013-03-12 16:22:00,
2013-03-12 06:32:00,60.0,60.0,-100.00,SE,129,4.0,7.0,99,0.00,,,0.79,0.000000,,2013-03-12 16:32:00,
2013-03-12 07:02:00,59.0,59.0,-100.00,ESE,123,0.0,6.0,99,0.00,,,0.79,0.000000,,2013-03-12 17:02:00,
2013-03-12 07:12:00,59.0,59.0,-100.00,ESE,123,0.0,6.0,99,0.00,,,0.79,0.000000,,2013-03-12 17:12:00,
2013-03-12 07:22:00,59.0,59.0,-100.00,ESE,123,0.0,6.0,99,0.00,,,0.79,0.000000,,2013-03-12 17:22:00,
2013-03-12 07:33:00,59.0,59.0,-100.00,ESE,123,0.0,6.0,99,0.00,,,0.79,0.000000,,2013-03-12 17:33:00,
2013-03-12 08:02:00,61.0,60.0,-100.00,ESE,120,3.0,7.0,98,0.00,,,0.79,29.000000,,2013-03-12 18:02:00,
2013-03-12 08:12:00,61.0,60.0,-100.00,ESE,120,3.0,7.0,98,0.00,,,0.79,29.000000,,2013-03-12 18:12:00,
2013-03-12 08:22:00,61.0,60.0,-100.00,ESE,120,3.0,7.0,98,0.00,,,0.79,29.000000,,2013-03-12 18:22:00,
2013-03-12 08:32:00,61.0,60.0,-100.00,ESE,120,3.0,7.0,98,0.00,,,0.79,29.000000,,2013-03-12 18:32:00,
2013-03-12 09:03:00,64.0,63.0,-100.00,ESE,123,3.0,6.0,98,0.00,,,-99.99,111.000000,,2013-03-12 19:03:00,
2013-03-12 09:13:00,64.0,63.0,-100.00,ESE,123,3.0,6.0,98,0.00,,,-99.99,111.000000,,2013-03-12 19:13:00,
2013-03-12 09:22:00,64.0,63.0,-100.00,ESE,123,3.0,6.0,98,0.00,,,-99.99,111.000000,,2013-03-12 19:22:00,
2013-03-12 09:32:00,64.0,63.0,-100.00,ESE,123,3.0,6.0,98,0.00,,,-99.99,111.000000,,2013-03-12 19:32:00,
2013-03-12 10:02:00,65.0,61.0,-100.00,NW,320,3.0,6.0,86,0.00,,,0.79,170.000000,,2013-03-12 20:02:00,
2013-03-12 10:12:00,65.0,61.0,-100.00,NW,320,3.0,6.0,86,0.00,,,0.79,170.000000,,2013-03-12 20:12:00,
2013-03-12 10:22:00,65.0,61.0,-100.00,NW,320,3.0,6.0,86,0.00,,,0.79,170.000000,,2013-03-12 20:22:00,
2013-03-12 10:32:00,65.0,61.0,-100.00,NW,320,3.0,6.0,86,0.00,,,0.79,170.000000,,2013-03-12 20:32:00,
2013-03-12 11:02:00,66.0,64.0,-100.00,NNW,345,0.0,9.0,92,0.00,,,0.79,301.000000,,2013-03-12 21:02:00,
2013-03-12 11:12:00,66.0,64.0,-100.00,NNW,345,0.0,9.0,92,0.00,,,0.79,301.000000,,2013-03-12 21:12:00,
2013-03-12 11:22:00,66.0,64.0,-100.00,NNW,345,0.0,9.0,92,0.00,,,0.79,301.000000,,2013-03-12 21:22:00,
2013-03-12 11:32:00,66.0,64.0,-100.00,NNW,345,0.0,9.0,92,0.00,,,0.79,301.000000,,2013-03-12 21:32:00,
2013-03-12 12:02:00,68.0,63.0,-100.00,South,181,0.0,5.0,84,0.00,,,0.79,363.000000,,2013-03-12 22:02:00,
2013-03-12 12:12:00,68.0,63.0,-100.00,South,181,0.0,5.0,84,0.00,,,0.79,363.000000,,2013-03-12 22:12:00,
2013-03-12 12:22:00,68.0,63.0,-100.00,South,181,0.0,5.0,84,0.00,,,0.79,363.000000,,2013-03-12 22:22:00,
2013-03-12 12:32:00,68.0,63.0,-100.00,South,181,0.0,5.0,84,0.00,,,0.79,363.000000,,2013-03-12 22:32:00,
2013-03-12 13:02:00,68.0,63.0,-100.00,NNW,328,4.0,6.0,83,0.00,,,0.79,463.000000,,2013-03-12 23:02:00,
2013-03-12 13:12:00,68.0,63.0,-100.00,NNW,328,4.0,6.0,83,0.00,,,0.79,463.000000,,2013-03-12 23:12:00,
2013-03-12 13:22:00,68.0,63.0,-100.00,NNW,328,4.0,6.0,83,0.00,,,0.79,463.000000,,2013-03-12 23:22:00,
2013-03-12 13:34:00,68.0,63.0,-100.00,NNW,328,4.0,6.0,83,0.00,,,0.79,463.000000,,2013-03-12 23:34:00,
2013-03-12 14:02:00,66.0,65.0,-100.00,NNW,333,7.0,12.0,97,0.00,,,0.79,373.000000,,2013-03-13 00:02:00,
2013-03-12 14:12:00,66.0,65.0,-100.00,NNW,333,7.0,12.0,97,0.00,,,0.79,373.000000,,2013-03-13 00:12:00,
2013-03-12 14:22:00,66.0,65.0,-100.00,NNW,333,7.0,12.0,97,0.00,,,0.79,373.000000,,2013-03-13 00:22:00,
2013-03-12 14:32:00,66.0,65.0,-100.00,NNW,333,7.0,12.0,97,0.00,,,0.79,373.000000,,2013-03-13 00:32:00,
2013-03-12 15:02:00,66.0,61.0,-100.00,NW,307,5.0,12.0,85,0.00,,,0.79,323.000000,,2013-03-13 01:02:00,
2013-03-12 15:12:00,66.0,61.0,-100.00,NW,307,5.0,12.0,85,0.00,,,0.79,323.000000,,2013-03-13 01:12:00,
2013-03-12 15:22:00,66.0,61.0,-100.00,NW,307,5.0,12.0,85,0.00,,,0.79,323.000000,,2013-03-13 01:22:00,
2013-03-12 15:31:00,66.0,61.0,-100.00,NW,307,5.0,12.0,85,0.00,,,0.79,323.000000,,2013-03-13 01:31:00,
2013-03-12 16:02:00,66.0,61.0,-100.00,NW,310,4.0,10.0,83,0.00,,,0.79,219.000000,,2013-03-13 02:02:00,
2013-03-12 16:12:00,66.0,61.0,-100.00,NW,310,4.0,10.0,83,0.00,,,0.79,219.000000,,2013-03-13 02:12:00,
2013-03-12 16:22:00,66.0,61.0,-100.00,NW,310,4.0,10.0,83,0.00,,,0.79,219.000000,,2013-03-13 02:22:00,
2013-03-12 16:31:00,66.0,61.0,-100.00,NW,310,4.0,10.0,83,0.00,,,0.79,219.000000,,2013-03-13 02:31:00,
2013-03-12 17:02:00,66.0,61.0,-100.00,WNW,295,1.0,11.0,85,0.00,,,0.79,200.000000,,2013-03-13 03:02:00,
2013-03-12 17:12:00,66.0,61.0,-100.00,WNW,295,1.0,11.0,85,0.00,,,0.79,200.000000,,2013-03-13 03:12:00,
2013-03-12 17:22:00,66.0,61.0,-100.00,WNW,295,1.0,11.0,85,0.00,,,0.79,200.000000,,2013-03-13 03:22:00,
2013-03-12 17:31:00,66.0,61.0,-100.00,WNW,295,1.0,11.0,85,0.00,,,0.79,200.000000,,2013-03-13 03:31:00,
2013-03-12 18:02:00,65.0,60.0,-100.00,WNW,303,3.0,8.0,85,0.00,,,0.79,102.000000,,2013-03-13 04:02:00,
2013-03-12 18:12:00,65.0,60.0,-100.00,WNW,303,3.0,8.0,85,0.00,,,0.79,102.000000,,2013-03-13 04:12:00,
2013-03-12 18:22:00,65.0,60.0,-100.00,WNW,303,3.0,8.0,85,0.00,,,0.79,102.000000,,2013-03-13 04:22:00,
2013-03-12 18:31:00,65.0,60.0,-100.00,WNW,303,3.0,8.0,85,0.00,,,0.79,102.000000,,2013-03-13 04:31:00,
2013-03-12 19:02:00,65.0,62.0,-100.00,WNW,300,0.0,6.0,89,0.00,,,0.79,50.000000,,2013-03-13 05:02:00,
2013-03-12 19:12:00,65.0,62.0,-100.00,WNW,300,0.0,6.0,89,0.00,,,0.79,50.000000,,2013-03-13 05:12:00,
2013-03-12 19:22:00,65.0,62.0,-100.00,WNW,300,0.0,6.0,89,0.00,,,0.79,50.000000,,2013-03-13 05:22:00,
2013-03-12 19:32:00,65.0,62.0,-100.00,WNW,300,0.0,6.0,89,0.00,,,0.79,50.000000,,2013-03-13 05:32:00,
2013-03-12 20:02:00,63.0,63.0,-100.00,WSW,238,0.0,0.0,99,0.00,,,0.58,0.000000,,2013-03-13 06:02:00,
2013-03-12 20:12:00,63.0,63.0,-100.00,WSW,238,0.0,0.0,99,0.00,,,0.58,0.000000,,2013-03-13 06:12:00,
2013-03-12 20:22:00,63.0,63.0,-100.00,WSW,238,0.0,0.0,99,0.00,,,0.58,0.000000,,2013-03-13 06:22:00,
2013-03-12 20:32:00,63.0,63.0,-100.00,WSW,238,0.0,0.0,99,0.00,,,0.58,0.000000,,2013-03-13 06:32:00,
2013-03-12 21:02:00,62.0,62.0,-100.00,ESE,123,2.0,0.0,99,0.00,,,0.50,0.000000,,2013-03-13 07:02:00,
2013-03-12 21:12:00,62.0,62.0,-100.00,ESE,123,2.0,0.0,99,0.00,,,0.50,0.000000,,2013-03-13 07:12:00,
2013-03-12 21:22:00,62.0,62.0,-100.00,ESE,123,2.0,0.0,99,0.00,,,0.50,0.000000,,2013-03-13 07:22:00,
2013-03-12 21:32:00,62.0,62.0,-100.00,ESE,123,2.0,0.0,99,0.00,,,0.50,0.000000,,2013-03-13 07:32:00,
2013-03-12 22:03:00,59.0,59.0,-100.00,SSE,147,5.0,6.0,99,0.00,,,0.10,0.000000,,2013-03-13 08:03:00,
2013-03-12 22:12:00,59.0,59.0,-100.00,SSE,147,5.0,6.0,99,0.00,,,0.10,0.000000,,2013-03-13 08:12:00,
2013-03-12 22:22:00,59.0,59.0,-100.00,SSE,147,5.0,6.0,99,0.00,,,0.10,0.000000,,2013-03-13 08:22:00,
2013-03-12 22:32:00,59.0,59.0,-100.00,SSE,147,5.0,6.0,99,0.00,,,0.10,0.000000,,2013-03-13 08:32:00,
2013-03-12 23:02:00,59.0,59.0,-100.00,SE,142,4.0,7.0,99,0.00,,,0.01,0.000000,,2013-03-13 09:02:00,
2013-03-12 23:12:00,59.0,59.0,-100.00,SE,142,4.0,7.0,99,0.00,,,0.01,0.000000,,2013-03-13 09:12:00,
2013-03-12 23:22:00,59.0,59.0,-100.00,SE,142,4.0,7.0,99,0.00,,,0.01,0.000000,,2013-03-13 09:22:00,
2013-03-12 23:32:00,59.0,59.0,-100.00,SE,142,4.0,7.0,99,0.00,,,0.01,0.000000,,2013-03-13 09:32:00,